Golf Manor, Ohio
Current Conditions -  °F | °C
As of 6:53 AM on Wednesday 28 Jan 2015 (Local Time) from KLUK Reporting Station
Haze Haze  
Wind Chill: 12°   Ceiling: Unl
Heat Index: 12°   Visibility: 4mi
Dew Point: 10°   Wind: 3mph
Humidity: 92%   Direction: 30°NNE
Pressure: 30.39"   Gusts: NA
Location:  39.1936°N, 84.4486°W
Report Text: KLUK 281153Z 03003KT 4SM BR CLR M11/M12 A3039 RMK AO2 SLP298 I1000 I6000 T11111122 11089 21111 53020
Loading
Personal Weather Stations






























Interactive Weather Map New forecast layout! Learn more

10-Day Weather Forecast

Advertisements
Track Severe Weather on mobile